createdAt,value
2023-04-13T00:00:03.229Z,20.93
2023-04-13T00:01:03.283Z,20.93
2023-04-13T00:02:03.404Z,20.94
2023-04-13T00:03:03.411Z,20.94
2023-04-13T00:04:04.125Z,20.94
2023-04-13T00:05:03.386Z,20.93
2023-04-13T00:06:03.420Z,20.93
2023-04-13T00:07:03.429Z,20.92
2023-04-13T00:08:03.508Z,20.92
2023-04-13T00:09:03.487Z,20.92
2023-04-13T00:10:03.544Z,20.92
2023-04-13T00:11:03.514Z,20.92
2023-04-13T00:12:03.530Z,20.92
2023-04-13T00:13:03.567Z,20.92
2023-04-13T00:14:03.711Z,20.91
2023-04-13T00:15:03.636Z,20.91
2023-04-13T00:16:03.685Z,20.91
2023-04-13T00:17:03.802Z,20.91
2023-04-13T00:18:03.773Z,20.91
2023-04-13T00:19:03.733Z,20.91
2023-04-13T00:20:03.723Z,20.90
2023-04-13T00:21:03.758Z,20.90
2023-04-13T00:22:03.814Z,20.90
2023-04-13T00:23:03.793Z,20.91
2023-04-13T00:24:03.915Z,20.89
2023-04-13T00:25:03.835Z,20.88
2023-04-13T00:26:03.900Z,20.88
2023-04-13T00:27:03.908Z,20.86
2023-04-13T00:28:04.039Z,20.85
2023-04-13T00:29:03.939Z,20.85
2023-04-13T00:30:03.944Z,20.83
2023-04-13T00:31:04.014Z,20.82
2023-04-13T00:32:04.016Z,20.81
2023-04-13T00:33:04.097Z,20.81
2023-04-13T00:34:04.027Z,20.82
2023-04-13T00:35:04.102Z,20.82
2023-04-13T00:36:04.139Z,20.81
2023-04-13T00:37:04.124Z,20.81
2023-04-13T00:38:04.212Z,20.81
2023-04-13T00:39:04.146Z,20.80
2023-04-13T00:40:04.200Z,20.80
2023-04-13T00:41:04.234Z,20.80
2023-04-13T00:42:04.221Z,20.79
2023-04-13T00:43:04.269Z,20.79
2023-04-13T00:44:04.274Z,20.77
2023-04-13T00:45:04.326Z,20.78
2023-04-13T00:46:04.400Z,20.77
2023-04-13T00:47:04.355Z,20.77
2023-04-13T00:48:04.416Z,20.76
2023-04-13T00:49:04.423Z,20.74
2023-04-13T00:50:04.433Z,20.74
2023-04-13T00:51:04.503Z,20.74
2023-04-13T00:52:04.503Z,20.73
2023-04-13T00:53:04.543Z,20.73
2023-04-13T00:54:04.538Z,20.73
2023-04-13T00:55:04.614Z,20.72
2023-04-13T00:56:04.636Z,20.71
2023-04-13T00:57:05.605Z,20.71
2023-04-13T00:58:04.688Z,20.70
2023-04-13T00:59:04.700Z,20.68
2023-04-13T01:00:04.730Z,20.67
2023-04-13T01:01:04.831Z,20.68
2023-04-13T01:02:04.837Z,20.69
2023-04-13T01:03:04.924Z,20.68
2023-04-13T01:04:04.912Z,20.67
2023-04-13T01:05:04.928Z,20.66
2023-04-13T01:06:04.958Z,20.66
2023-04-13T01:07:04.975Z,20.65
2023-04-13T01:08:05.041Z,20.65
2023-04-13T01:09:05.073Z,20.64
2023-04-13T01:10:05.105Z,20.64
2023-04-13T01:11:05.131Z,20.64
2023-04-13T01:12:05.152Z,20.64
2023-04-13T01:13:05.158Z,20.64
2023-04-13T01:14:05.283Z,20.62
2023-04-13T01:15:05.248Z,20.63
2023-04-13T01:16:05.357Z,20.62
2023-04-13T01:18:24.561Z,20.59
2023-04-13T01:20:43.800Z,20.55
2023-04-13T01:21:43.814Z,20.57
2023-04-13T01:22:43.819Z,20.58
2023-04-13T01:23:43.786Z,20.59
2023-04-13T01:24:43.757Z,20.59
2023-04-13T01:25:43.747Z,20.58
2023-04-13T01:26:43.752Z,20.57
2023-04-13T01:27:43.762Z,20.57
2023-04-13T01:28:43.749Z,20.56
2023-04-13T01:29:43.784Z,20.57
2023-04-13T01:30:43.744Z,20.58
2023-04-13T01:31:43.764Z,20.56
2023-04-13T01:32:43.770Z,20.54
2023-04-13T01:33:43.687Z,20.54
2023-04-13T01:34:43.685Z,20.54
2023-04-13T01:35:43.683Z,20.53
2023-04-13T01:36:43.707Z,20.53
2023-04-13T01:37:43.667Z,20.53
2023-04-13T01:38:43.682Z,20.53
2023-04-13T01:39:43.636Z,20.53
2023-04-13T01:40:43.660Z,20.54
2023-04-13T01:41:43.656Z,20.54
2023-04-13T01:42:43.641Z,20.54
2023-04-13T01:43:43.648Z,20.52
2023-04-13T01:44:43.614Z,20.52
2023-04-13T01:45:43.624Z,20.50
2023-04-13T01:46:43.727Z,20.49
2023-04-13T01:47:43.619Z,20.49
2023-04-13T01:48:43.604Z,20.49
2023-04-13T01:49:43.611Z,20.48
2023-04-13T01:50:43.596Z,20.48
2023-04-13T01:51:43.592Z,20.46
2023-04-13T01:52:43.558Z,20.46
2023-04-13T01:53:43.573Z,20.44
2023-04-13T01:54:43.567Z,20.45
2023-04-13T01:55:43.540Z,20.44
2023-04-13T01:56:43.541Z,20.43
2023-04-13T01:57:43.540Z,20.42
2023-04-13T01:58:43.554Z,20.41
2023-04-13T01:59:43.506Z,20.40
2023-04-13T02:00:43.527Z,20.40
2023-04-13T02:01:43.672Z,20.40
2023-04-13T02:02:43.698Z,20.40
2023-04-13T02:03:43.756Z,20.41
2023-04-13T02:04:43.665Z,20.43
2023-04-13T02:05:43.697Z,20.44
2023-04-13T02:06:43.807Z,20.44
2023-04-13T02:07:43.820Z,20.43
2023-04-13T02:08:43.846Z,20.43
2023-04-13T02:09:43.925Z,20.41
2023-04-13T02:10:43.988Z,20.38
2023-04-13T02:11:44.050Z,20.38
2023-04-13T02:12:44.065Z,20.39
2023-04-13T02:13:44.169Z,20.39
2023-04-13T02:14:44.265Z,20.39
2023-04-13T02:15:44.245Z,20.39
2023-04-13T02:16:44.388Z,20.38
2023-04-13T02:17:44.403Z,20.38
2023-04-13T02:18:44.436Z,20.37
2023-04-13T02:19:44.520Z,20.37
2023-04-13T02:20:44.589Z,20.37
2023-04-13T02:21:44.620Z,20.34
2023-04-13T02:22:44.690Z,20.34
2023-04-13T02:23:44.739Z,20.29
2023-04-13T02:24:44.764Z,20.25
2023-04-13T02:25:47.173Z,20.19
2023-04-13T02:26:44.874Z,20.18
2023-04-13T02:27:44.870Z,20.15
2023-04-13T02:28:44.839Z,20.11
2023-04-13T02:29:44.805Z,20.10
2023-04-13T02:30:44.834Z,20.05
2023-04-13T02:31:44.805Z,20.01
2023-04-13T02:32:44.820Z,20.02
2023-04-13T02:33:44.811Z,20.03
2023-04-13T02:34:44.782Z,20.06
2023-04-13T02:35:44.770Z,20.07
2023-04-13T02:36:44.806Z,20.08
2023-04-13T02:37:44.734Z,20.09
2023-04-13T02:38:45.515Z,20.10
2023-04-13T02:39:44.738Z,20.09
2023-04-13T02:40:44.768Z,20.11
2023-04-13T02:41:44.756Z,20.12
2023-04-13T02:42:44.725Z,20.12
2023-04-13T02:43:44.713Z,20.13
2023-04-13T02:44:44.698Z,20.13
2023-04-13T02:45:44.796Z,20.14
2023-04-13T02:46:44.736Z,20.12
2023-04-13T02:47:44.778Z,20.12
2023-04-13T02:48:44.707Z,20.11
2023-04-13T02:49:44.683Z,20.12
2023-04-13T02:50:44.711Z,20.11
2023-04-13T02:51:44.684Z,20.11
2023-04-13T02:52:44.664Z,20.12
2023-04-13T02:53:44.672Z,20.11
2023-04-13T02:54:44.663Z,20.10
2023-04-13T02:55:44.642Z,20.10
2023-04-13T02:56:44.649Z,20.11
2023-04-13T02:57:44.628Z,20.11
2023-04-13T02:58:44.626Z,20.09
2023-04-13T02:59:44.639Z,20.09
2023-04-13T03:00:44.665Z,20.10
2023-04-13T03:01:44.677Z,20.11
2023-04-13T03:02:44.669Z,20.10
2023-04-13T03:03:44.690Z,20.10
2023-04-13T03:04:44.625Z,20.10
2023-04-13T03:05:44.577Z,20.11
2023-04-13T03:06:44.583Z,20.12
2023-04-13T03:07:44.552Z,20.11
2023-04-13T03:08:44.598Z,20.11
2023-04-13T03:09:44.527Z,20.12
2023-04-13T03:10:44.558Z,20.11
2023-04-13T03:11:44.552Z,20.11
2023-04-13T03:12:44.536Z,20.08
2023-04-13T03:13:44.513Z,20.08
2023-04-13T03:14:44.498Z,20.09
2023-04-13T03:15:44.534Z,20.08
2023-04-13T03:16:44.606Z,20.07
2023-04-13T03:17:44.512Z,20.06
2023-04-13T03:18:44.484Z,20.05
2023-04-13T03:19:44.465Z,20.04
2023-04-13T03:20:44.467Z,20.03
2023-04-13T03:21:44.446Z,20.04
2023-04-13T03:22:44.420Z,20.04
2023-04-13T03:23:44.502Z,20.03
2023-04-13T03:24:44.422Z,20.03
2023-04-13T03:25:44.460Z,20.03
2023-04-13T03:26:44.454Z,20.03
2023-04-13T03:27:44.468Z,20.02
2023-04-13T03:28:44.406Z,20.00
2023-04-13T03:29:44.390Z,19.99
2023-04-13T03:30:44.406Z,19.99
2023-04-13T03:31:44.503Z,19.99
2023-04-13T03:32:44.455Z,19.99
2023-04-13T03:33:44.448Z,19.97
2023-04-13T03:34:44.683Z,19.97
2023-04-13T03:35:44.363Z,19.96
2023-04-13T03:36:44.380Z,19.96
2023-04-13T03:37:44.369Z,19.95
2023-04-13T03:38:44.392Z,19.94
2023-04-13T03:39:45.085Z,19.93
2023-04-13T03:40:44.356Z,19.93
2023-04-13T03:41:44.341Z,19.91
2023-04-13T03:42:44.341Z,19.89
2023-04-13T03:43:44.347Z,19.88
2023-04-13T03:44:44.330Z,19.88
2023-04-13T03:45:44.312Z,19.85
2023-04-13T03:46:44.393Z,19.85
2023-04-13T03:47:44.365Z,19.83
2023-04-13T03:48:44.303Z,19.82
2023-04-13T03:49:44.269Z,19.82
2023-04-13T03:50:44.273Z,19.82
2023-04-13T03:51:44.252Z,19.83
2023-04-13T03:52:44.281Z,19.82
2023-04-13T03:53:44.280Z,19.82
2023-04-13T03:54:44.258Z,19.82
2023-04-13T03:55:44.234Z,19.82
2023-04-13T03:56:44.256Z,19.83
2023-04-13T03:57:44.241Z,19.84
2023-04-13T03:58:44.234Z,19.83
2023-04-13T03:59:44.197Z,19.83
2023-04-13T04:00:44.234Z,19.83
2023-04-13T04:01:44.259Z,19.83
2023-04-13T04:02:44.334Z,19.81
2023-04-13T04:03:44.277Z,19.82
2023-04-13T04:04:44.188Z,19.82
2023-04-13T04:05:44.191Z,19.81
2023-04-13T04:06:44.192Z,19.80
2023-04-13T04:07:44.182Z,19.79
2023-04-13T04:08:44.190Z,19.78
2023-04-13T04:09:44.153Z,19.79
2023-04-13T04:10:44.181Z,19.77
2023-04-13T04:11:44.211Z,19.76
2023-04-13T04:12:44.204Z,19.76
2023-04-13T04:13:44.333Z,19.75
2023-04-13T04:14:44.247Z,19.75
2023-04-13T04:15:44.342Z,19.74
2023-04-13T04:16:44.350Z,19.72
2023-04-13T04:17:44.354Z,19.71
2023-04-13T04:18:44.314Z,19.71
2023-04-13T04:19:44.352Z,19.72
2023-04-13T04:20:44.399Z,19.72
2023-04-13T04:21:44.400Z,19.72
2023-04-13T04:22:44.412Z,19.71
2023-04-13T04:23:44.489Z,19.70
2023-04-13T04:24:44.542Z,19.69
2023-04-13T04:25:44.487Z,19.69
2023-04-13T04:26:44.537Z,19.68
2023-04-13T04:27:44.554Z,19.67
2023-04-13T04:28:44.598Z,19.66
2023-04-13T04:29:44.610Z,19.66
2023-04-13T04:30:44.651Z,19.65
2023-04-13T04:31:44.730Z,19.65
2023-04-13T04:32:44.799Z,19.64
2023-04-13T04:33:44.718Z,19.64
2023-04-13T04:34:44.744Z,19.64
2023-04-13T04:35:44.775Z,19.64
2023-04-13T04:36:44.824Z,19.64
2023-04-13T04:37:44.883Z,19.63
2023-04-13T04:38:44.892Z,19.62
2023-04-13T04:39:44.939Z,19.62
2023-04-13T04:40:45.022Z,19.62
2023-04-13T04:41:45.993Z,19.62
2023-04-13T04:42:44.987Z,19.60
2023-04-13T04:43:45.057Z,19.59
2023-04-13T04:44:45.097Z,19.60
2023-04-13T04:45:45.152Z,19.60
2023-04-13T04:46:45.190Z,19.59
2023-04-13T04:47:45.255Z,19.59
2023-04-13T04:48:45.225Z,19.59
2023-04-13T04:49:45.235Z,19.60
2023-04-13T04:50:45.308Z,19.61
2023-04-13T04:51:45.312Z,19.61
2023-04-13T04:52:45.390Z,19.62
2023-04-13T04:53:45.379Z,19.64
2023-04-13T04:54:45.402Z,19.66
2023-04-13T04:55:45.444Z,19.68
2023-04-13T04:56:45.469Z,19.70
2023-04-13T04:57:45.462Z,19.72
2023-04-13T04:58:45.521Z,19.74
2023-04-13T04:59:45.541Z,19.75
2023-04-13T05:00:45.644Z,19.75
2023-04-13T05:01:45.616Z,19.76
2023-04-13T05:02:45.676Z,19.77
2023-04-13T05:03:45.590Z,19.76
2023-04-13T05:04:45.617Z,19.77
2023-04-13T05:05:45.692Z,19.78
2023-04-13T05:06:45.672Z,19.77
2023-04-13T05:07:45.709Z,19.77
2023-04-13T05:08:45.705Z,19.77
2023-04-13T05:09:45.727Z,19.77
2023-04-13T05:10:45.753Z,19.76
2023-04-13T05:11:45.748Z,19.76
2023-04-13T05:12:45.789Z,19.76
2023-04-13T05:13:45.814Z,19.77
2023-04-13T05:14:45.824Z,19.77
2023-04-13T05:15:45.907Z,19.77
2023-04-13T05:16:45.863Z,19.77
2023-04-13T05:17:45.937Z,19.77
2023-04-13T05:18:45.907Z,19.78
2023-04-13T05:19:45.928Z,19.79
2023-04-13T05:20:45.961Z,19.79
2023-04-13T05:21:45.961Z,19.80
2023-04-13T05:22:46.009Z,19.79
2023-04-13T05:23:46.033Z,19.80
2023-04-13T05:24:46.006Z,19.79
2023-04-13T05:25:46.037Z,19.80
2023-04-13T05:26:46.031Z,19.81
2023-04-13T05:27:46.073Z,19.80
2023-04-13T05:28:46.093Z,19.80
2023-04-13T05:29:47.720Z,19.80
2023-04-13T05:30:46.106Z,19.80
2023-04-13T05:31:46.217Z,19.81
2023-04-13T05:32:46.188Z,19.83
2023-04-13T05:33:46.166Z,19.83
2023-04-13T05:34:46.187Z,19.84
2023-04-13T05:35:46.204Z,19.85
2023-04-13T05:36:46.213Z,19.88
2023-04-13T05:37:46.215Z,19.89
2023-04-13T05:38:46.220Z,19.89
2023-04-13T05:39:46.241Z,19.90
2023-04-13T05:40:46.239Z,19.91
2023-04-13T05:41:46.247Z,19.92
2023-04-13T05:42:46.234Z,19.92
2023-04-13T05:43:46.232Z,19.94
2023-04-13T05:44:46.222Z,19.94
2023-04-13T05:45:46.333Z,19.96
2023-04-13T05:46:46.211Z,19.96
2023-04-13T05:47:46.345Z,19.94
2023-04-13T05:48:46.242Z,19.95
2023-04-13T05:49:46.248Z,19.95
2023-04-13T05:50:46.226Z,19.99
2023-04-13T05:51:46.224Z,20.00
2023-04-13T05:52:46.235Z,20.02
2023-04-13T05:53:46.249Z,20.07
2023-04-13T05:54:46.287Z,20.11
2023-04-13T05:55:48.146Z,20.16
2023-04-13T05:56:46.600Z,20.20
2023-04-13T05:57:46.407Z,20.24
2023-04-13T05:58:46.443Z,20.28
2023-04-13T05:59:46.504Z,20.33
2023-04-13T06:00:46.577Z,20.37
2023-04-13T06:01:46.730Z,20.42
2023-04-13T06:02:46.793Z,20.46
2023-04-13T06:03:46.852Z,20.50
2023-04-13T06:04:46.825Z,20.55
2023-04-13T06:05:46.797Z,20.59
2023-04-13T06:06:46.828Z,20.63
2023-04-13T06:07:46.921Z,20.66
2023-04-13T06:08:46.974Z,20.70
2023-04-13T06:09:46.980Z,20.72
2023-04-13T06:10:47.041Z,20.75
2023-04-13T06:11:47.080Z,20.78
2023-04-13T06:12:47.088Z,20.80
2023-04-13T06:13:47.186Z,20.83
2023-04-13T06:14:47.174Z,20.86
2023-04-13T06:15:47.203Z,20.87
2023-04-13T06:16:47.342Z,20.90
2023-04-13T06:17:47.347Z,20.92
2023-04-13T06:18:47.320Z,20.94
2023-04-13T06:19:47.337Z,20.96
2023-04-13T06:20:47.343Z,20.98
2023-04-13T06:21:47.419Z,21.00
2023-04-13T06:22:47.430Z,21.02
2023-04-13T06:23:47.430Z,21.03
2023-04-13T06:24:47.435Z,21.05
2023-04-13T06:25:47.456Z,21.07
2023-04-13T06:26:47.446Z,21.08
2023-04-13T06:27:47.493Z,21.10
2023-04-13T06:28:47.526Z,21.11
2023-04-13T06:29:47.535Z,21.12
2023-04-13T06:30:47.574Z,21.14
2023-04-13T06:31:47.594Z,21.15
2023-04-13T06:32:47.583Z,21.17
2023-04-13T06:33:47.577Z,21.18
2023-04-13T06:34:47.545Z,21.20
2023-04-13T06:35:47.582Z,21.21
2023-04-13T06:36:47.593Z,21.23
2023-04-13T06:37:47.591Z,21.23
2023-04-13T06:38:54.588Z,21.24
2023-04-13T06:39:47.592Z,21.25
2023-04-13T06:40:47.603Z,21.26
2023-04-13T06:41:47.576Z,21.27
2023-04-13T06:42:47.585Z,21.28
2023-04-13T06:43:48.111Z,21.29
2023-04-13T06:44:47.640Z,21.30
2023-04-13T06:45:47.608Z,21.30
2023-04-13T06:46:47.704Z,21.31
2023-04-13T06:47:47.644Z,21.33
2023-04-13T06:48:47.527Z,21.38
2023-04-13T06:49:47.600Z,21.42
2023-04-13T06:50:47.557Z,21.47
2023-04-13T06:51:47.627Z,21.54
2023-04-13T06:52:47.567Z,21.57
2023-04-13T06:53:47.498Z,21.62
2023-04-13T06:54:47.509Z,21.66
2023-04-13T06:55:54.495Z,21.70
2023-04-13T06:56:47.465Z,21.75
2023-04-13T06:57:47.468Z,21.81
2023-04-13T06:58:47.463Z,21.87
2023-04-13T06:59:47.467Z,21.91
2023-04-13T07:00:47.433Z,21.95
2023-04-13T07:01:47.492Z,21.98
2023-04-13T07:02:47.501Z,22.02
2023-04-13T07:03:47.514Z,22.05
2023-04-13T07:04:47.461Z,22.07
2023-04-13T07:05:47.434Z,22.10
2023-04-13T07:06:47.404Z,22.13
2023-04-13T07:07:47.392Z,22.15
2023-04-13T07:08:47.389Z,22.17
2023-04-13T07:09:47.442Z,22.19
2023-04-13T07:10:47.364Z,22.22
2023-04-13T07:11:47.652Z,22.22
2023-04-13T07:12:47.367Z,22.24
2023-04-13T07:13:47.374Z,22.26
2023-04-13T07:14:47.350Z,22.27
2023-04-13T07:15:47.346Z,22.27
2023-04-13T07:16:47.343Z,22.29
2023-04-13T07:17:47.341Z,22.31
2023-04-13T07:18:47.308Z,22.32
2023-04-13T07:19:47.342Z,22.33
2023-04-13T07:20:47.406Z,22.35
2023-04-13T07:21:47.325Z,22.36
2023-04-13T07:22:47.273Z,22.38
2023-04-13T07:23:47.265Z,22.38
2023-04-13T07:24:47.265Z,22.40
2023-04-13T07:25:47.378Z,22.41
2023-04-13T07:26:47.275Z,22.42
2023-04-13T07:27:47.242Z,22.44
2023-04-13T07:28:47.259Z,22.44
2023-04-13T07:29:47.259Z,22.45
2023-04-13T07:30:47.228Z,22.45
2023-04-13T07:31:47.328Z,22.45
2023-04-13T07:32:47.218Z,22.45
2023-04-13T07:33:47.233Z,22.47
2023-04-13T07:34:47.198Z,22.49
2023-04-13T07:35:47.201Z,22.50
2023-04-13T07:36:47.680Z,22.51
2023-04-13T07:37:47.183Z,22.52
2023-04-13T07:38:47.182Z,22.54
2023-04-13T07:39:47.168Z,22.55
2023-04-13T07:40:48.152Z,22.56
2023-04-13T07:41:47.133Z,22.56
2023-04-13T07:42:47.138Z,22.58
2023-04-13T07:43:47.150Z,22.58
2023-04-13T07:44:47.151Z,22.60
2023-04-13T07:45:47.166Z,22.61
2023-04-13T07:46:47.254Z,22.59
2023-04-13T07:47:47.116Z,22.58
2023-04-13T07:48:47.126Z,22.56
2023-04-13T07:49:47.112Z,22.53
2023-04-13T07:50:47.096Z,22.46
2023-04-13T07:51:47.115Z,22.40
2023-04-13T07:52:47.058Z,22.31
2023-04-13T07:53:47.078Z,22.23
2023-04-13T07:54:47.053Z,22.15
2023-04-13T07:55:47.039Z,22.09
2023-04-13T07:56:47.068Z,22.02
2023-04-13T07:57:47.039Z,21.93
2023-04-13T07:58:47.084Z,21.88
2023-04-13T07:59:47.159Z,21.84
2023-04-13T08:00:47.232Z,21.80
2023-04-13T08:01:54.681Z,21.75
2023-04-13T08:02:47.383Z,21.71
2023-04-13T08:03:47.376Z,21.66
2023-04-13T08:04:47.329Z,21.63
2023-04-13T08:05:47.405Z,21.61
2023-04-13T08:06:47.195Z,21.58
2023-04-13T08:07:47.221Z,21.60
2023-04-13T08:08:47.213Z,21.63
2023-04-13T08:09:47.190Z,21.64
2023-04-13T08:10:47.226Z,21.68
2023-04-13T08:11:47.215Z,21.73
2023-04-13T08:12:47.195Z,21.77
2023-04-13T08:13:47.198Z,21.81
2023-04-13T08:14:47.200Z,21.85
2023-04-13T08:15:47.133Z,21.90
2023-04-13T08:16:47.186Z,21.95
2023-04-13T08:17:47.154Z,21.99
2023-04-13T08:18:47.115Z,22.03
2023-04-13T08:19:47.115Z,22.07
2023-04-13T08:20:47.138Z,22.09
2023-04-13T08:21:47.140Z,22.13
2023-04-13T08:22:47.149Z,22.14
2023-04-13T08:23:47.088Z,22.16
2023-04-13T08:24:47.108Z,22.18
2023-04-13T08:25:47.114Z,22.20
2023-04-13T08:26:47.108Z,22.20
2023-04-13T08:27:47.086Z,22.22
2023-04-13T08:28:47.071Z,22.25
2023-04-13T08:29:47.103Z,22.25
2023-04-13T08:30:47.133Z,22.25
2023-04-13T08:31:47.207Z,22.25
2023-04-13T08:32:47.195Z,22.26
2023-04-13T08:33:47.193Z,22.26
2023-04-13T08:34:47.179Z,22.27
2023-04-13T08:35:47.227Z,22.26
2023-04-13T08:36:47.820Z,22.06
2023-04-13T08:37:47.312Z,21.95
2023-04-13T08:38:47.333Z,21.86
2023-04-13T08:39:47.417Z,21.83
2023-04-13T08:40:49.508Z,21.82
2023-04-13T08:41:47.645Z,21.81
2023-04-13T08:42:48.429Z,21.82
2023-04-13T08:43:47.750Z,21.81
2023-04-13T08:44:47.835Z,21.83
2023-04-13T08:45:47.928Z,21.83
2023-04-13T08:46:48.592Z,21.83
2023-04-13T08:47:48.061Z,21.78
2023-04-13T08:48:53.861Z,21.76
2023-04-13T08:49:49.073Z,21.70
2023-04-13T08:50:48.054Z,21.35
2023-04-13T08:51:48.056Z,20.68
2023-04-13T08:52:48.251Z,20.37
2023-04-13T08:53:48.042Z,20.36
2023-04-13T08:54:48.043Z,20.45
2023-04-13T08:55:48.051Z,20.57
2023-04-13T08:56:48.027Z,20.71
2023-04-13T08:57:49.425Z,20.87
2023-04-13T08:58:48.193Z,21.04
2023-04-13T08:59:48.225Z,21.19
2023-04-13T09:00:48.211Z,21.34
2023-04-13T09:01:48.452Z,21.47
2023-04-13T09:03:00.553Z,21.60
2023-04-13T09:03:49.478Z,21.71
2023-04-13T09:04:48.415Z,21.82
2023-04-13T09:05:48.325Z,21.91
2023-04-13T09:06:48.328Z,21.99
2023-04-13T09:07:48.330Z,22.05
2023-04-13T09:08:48.307Z,22.11
2023-04-13T09:09:48.279Z,22.17
2023-04-13T09:10:48.320Z,22.21
2023-04-13T09:11:50.808Z,22.25
2023-04-13T09:12:48.284Z,22.29
2023-04-13T09:13:48.258Z,22.34
2023-04-13T09:14:48.245Z,22.37
2023-04-13T09:15:48.233Z,22.39
2023-04-13T09:16:48.267Z,22.42
2023-04-13T09:17:48.294Z,22.45
2023-04-13T09:18:48.291Z,22.46
2023-04-13T09:19:48.198Z,22.49
2023-04-13T09:20:48.214Z,22.50
2023-04-13T09:21:48.212Z,22.52
2023-04-13T09:22:48.174Z,22.53
2023-04-13T09:23:48.185Z,22.54
2023-04-13T09:24:48.186Z,22.55
2023-04-13T09:25:48.167Z,22.56
2023-04-13T09:26:48.203Z,22.57
2023-04-13T09:27:48.211Z,22.57
2023-04-13T09:28:48.178Z,22.58
2023-04-13T09:29:48.166Z,22.59
2023-04-13T09:30:55.242Z,22.61
2023-04-13T09:31:48.169Z,22.60
2023-04-13T09:32:48.186Z,22.61
2023-04-13T09:33:48.164Z,22.62
2023-04-13T09:34:48.120Z,22.63
2023-04-13T09:35:48.116Z,22.63
2023-04-13T09:36:54.936Z,22.64
2023-04-13T09:37:49.245Z,22.64
2023-04-13T09:38:48.099Z,22.65
2023-04-13T09:39:48.088Z,22.65
2023-04-13T09:40:48.079Z,22.65
2023-04-13T09:41:48.084Z,22.66
2023-04-13T09:42:48.247Z,22.66
2023-04-13T09:43:48.050Z,22.67
2023-04-13T09:44:48.066Z,22.67
2023-04-13T09:45:48.040Z,22.69
2023-04-13T09:46:48.084Z,22.71
2023-04-13T09:47:48.317Z,22.73
2023-04-13T09:48:48.031Z,22.73
2023-04-13T09:49:48.037Z,22.74
2023-04-13T09:50:48.098Z,22.74
2023-04-13T09:51:48.152Z,22.76
2023-04-13T09:52:48.202Z,22.77
2023-04-13T09:53:48.250Z,22.79
2023-04-13T09:54:48.815Z,22.80
2023-04-13T09:55:48.369Z,22.81
2023-04-13T09:56:48.387Z,22.81
2023-04-13T09:57:48.476Z,22.84
2023-04-13T09:58:48.547Z,22.87
2023-04-13T09:59:48.577Z,22.86
2023-04-13T10:00:48.649Z,22.87
2023-04-13T10:01:48.847Z,22.88
2023-04-13T10:02:49.013Z,22.88
2023-04-13T10:03:48.844Z,22.89
2023-04-13T10:04:48.915Z,22.90
2023-04-13T10:06:48.942Z,22.91
2023-04-13T10:07:48.930Z,22.93
2023-04-13T10:08:48.903Z,22.95
2023-04-13T10:09:48.896Z,22.95
2023-04-13T10:10:49.617Z,22.98
2023-04-13T10:11:48.891Z,23.00
2023-04-13T10:12:48.915Z,23.00
2023-04-13T10:13:48.889Z,23.02
2023-04-13T10:14:48.956Z,23.03
2023-04-13T10:15:48.930Z,23.04
2023-04-13T10:16:49.029Z,23.04
2023-04-13T10:17:48.957Z,23.05
2023-04-13T10:18:48.905Z,23.04
2023-04-13T10:19:48.827Z,23.04
2023-04-13T10:20:48.837Z,23.03
2023-04-13T10:21:48.823Z,23.04
2023-04-13T10:22:48.850Z,23.04
2023-04-13T10:23:48.782Z,23.05
2023-04-13T10:24:48.797Z,23.04
2023-04-13T10:25:48.792Z,23.04
2023-04-13T10:26:48.783Z,23.03
2023-04-13T10:27:48.795Z,23.04
2023-04-13T10:28:48.784Z,23.04
2023-04-13T10:29:48.772Z,23.04
2023-04-13T10:30:48.791Z,23.05
2023-04-13T10:31:48.978Z,23.05
2023-04-13T10:32:48.806Z,23.06
2023-04-13T10:33:48.748Z,23.07
2023-04-13T10:34:48.728Z,23.07
2023-04-13T10:35:48.728Z,23.08
2023-04-13T10:36:48.713Z,23.08
2023-04-13T10:37:48.722Z,23.09
2023-04-13T10:38:48.690Z,23.10
2023-04-13T10:39:48.678Z,23.10
2023-04-13T10:40:48.714Z,23.11
2023-04-13T10:41:48.713Z,23.11
2023-04-13T10:42:51.931Z,23.10
2023-04-13T10:43:48.675Z,23.10
2023-04-13T10:44:48.640Z,23.10
2023-04-13T10:45:48.636Z,23.10
2023-04-13T10:46:48.688Z,23.11
2023-04-13T10:47:48.648Z,23.13
2023-04-13T10:48:48.656Z,23.13
2023-04-13T10:49:48.704Z,23.13
2023-04-13T10:50:48.614Z,23.13
2023-04-13T10:51:48.604Z,23.14
2023-04-13T10:52:48.592Z,23.14
2023-04-13T10:53:48.571Z,23.14
2023-04-13T10:54:48.578Z,23.14
2023-04-13T10:55:48.577Z,23.14
2023-04-13T10:56:48.598Z,23.14
2023-04-13T10:57:48.572Z,23.16
2023-04-13T10:58:48.571Z,23.16
2023-04-13T10:59:57.822Z,23.16
2023-04-13T11:00:49.559Z,23.16
2023-04-13T11:01:48.542Z,23.16
2023-04-13T11:02:48.614Z,23.17
2023-04-13T11:04:03.190Z,23.17
2023-04-13T11:04:49.675Z,23.17
2023-04-13T11:05:48.493Z,23.18
2023-04-13T11:06:48.585Z,23.20
2023-04-13T11:07:54.974Z,23.21
2023-04-13T11:08:49.518Z,23.21
2023-04-13T11:09:48.494Z,23.22
2023-04-13T11:10:48.511Z,23.23
2023-04-13T11:11:48.465Z,23.23
2023-04-13T11:12:48.493Z,23.24
2023-04-13T11:13:48.444Z,23.25
2023-04-13T11:14:48.440Z,23.26
2023-04-13T11:15:48.466Z,23.27
2023-04-13T11:16:48.447Z,23.28
2023-04-13T11:17:48.813Z,23.30
2023-04-13T11:18:48.422Z,23.31
2023-04-13T11:19:49.781Z,23.31
2023-04-13T11:20:48.391Z,23.31
2023-04-13T11:21:48.416Z,23.31
2023-04-13T11:22:48.393Z,23.31
2023-04-13T11:23:48.361Z,23.32
2023-04-13T11:24:48.370Z,23.31
2023-04-13T11:25:48.379Z,23.31
2023-04-13T11:26:48.422Z,23.32
2023-04-13T11:27:48.782Z,23.32
2023-04-13T11:28:48.345Z,23.31
2023-04-13T11:29:48.320Z,23.32
2023-04-13T11:30:48.371Z,23.33
2023-04-13T11:31:48.401Z,23.33
2023-04-13T11:32:48.835Z,23.33
2023-04-13T11:33:48.336Z,23.32
2023-04-13T11:34:48.300Z,23.32
2023-04-13T11:35:50.466Z,23.32
2023-04-13T11:36:48.322Z,23.31
2023-04-13T11:37:48.823Z,23.31
2023-04-13T11:38:48.285Z,23.32
2023-04-13T11:39:48.295Z,23.31
2023-04-13T11:40:48.249Z,23.31
2023-04-13T11:41:48.277Z,23.31
2023-04-13T11:42:48.313Z,23.31
2023-04-13T11:43:48.411Z,23.31
2023-04-13T11:44:48.395Z,23.29
2023-04-13T11:45:48.431Z,23.29
2023-04-13T11:46:48.457Z,23.27
2023-04-13T11:47:48.547Z,23.27
2023-04-13T11:48:48.528Z,23.26
2023-04-13T11:49:48.590Z,23.25
2023-04-13T11:50:48.592Z,23.25
2023-04-13T11:51:48.707Z,23.25
2023-04-13T11:52:48.709Z,23.25
2023-04-13T11:53:48.766Z,23.24
2023-04-13T11:54:48.828Z,23.23
2023-04-13T11:55:53.324Z,23.22
2023-04-13T11:56:49.144Z,23.21
2023-04-13T11:57:48.818Z,23.21
2023-04-13T11:58:48.836Z,23.21
2023-04-13T11:59:48.828Z,23.20
2023-04-13T12:00:48.818Z,23.20
2023-04-13T12:01:50.343Z,23.19
2023-04-13T12:03:00.996Z,23.19
2023-04-13T12:04:01.606Z,23.18
2023-04-13T12:04:49.981Z,23.18
2023-04-13T12:05:49.026Z,23.18
2023-04-13T12:06:48.959Z,23.16
2023-04-13T12:07:49.374Z,23.17
2023-04-13T12:08:54.550Z,23.17
2023-04-13T12:11:20.078Z,23.15
2023-04-13T12:11:54.244Z,23.14
2023-04-13T12:12:51.699Z,23.13
2023-04-13T12:14:05.957Z,23.13
2023-04-13T12:14:59.263Z,23.13
2023-04-13T12:16:05.212Z,23.13
2023-04-13T12:17:52.271Z,23.12
2023-04-13T12:18:50.106Z,23.12
2023-04-13T12:19:49.067Z,23.12
2023-04-13T12:20:48.814Z,23.12
2023-04-13T12:21:49.360Z,23.10
2023-04-13T12:22:57.753Z,23.09
2023-04-13T12:23:49.737Z,23.08
2023-04-13T12:24:48.699Z,23.07
2023-04-13T12:25:49.781Z,23.07
2023-04-13T12:27:48.649Z,23.05
2023-04-13T12:28:48.649Z,23.05
2023-04-13T12:29:48.635Z,23.05
2023-04-13T12:30:48.630Z,23.06
2023-04-13T12:31:48.725Z,23.07
2023-04-13T12:32:48.647Z,23.04
2023-04-13T12:33:48.588Z,23.03
2023-04-13T12:34:48.588Z,23.02
2023-04-13T12:35:48.571Z,22.98
2023-04-13T12:36:48.585Z,22.92
2023-04-13T12:37:48.568Z,22.84
2023-04-13T12:38:48.577Z,22.78
2023-04-13T12:39:48.577Z,22.73
2023-04-13T12:40:48.543Z,22.70
2023-04-13T12:41:48.548Z,22.67
2023-04-13T12:42:48.512Z,22.65
2023-04-13T12:43:48.574Z,22.60
2023-04-13T12:44:48.497Z,22.58
2023-04-13T12:45:48.494Z,22.54
2023-04-13T12:46:48.555Z,22.52
2023-04-13T12:47:48.519Z,22.47
2023-04-13T12:48:48.473Z,22.44
2023-04-13T12:49:48.476Z,22.41
2023-04-13T12:50:48.496Z,22.38
2023-04-13T12:51:48.455Z,22.34
2023-04-13T12:52:48.470Z,22.30
2023-04-13T12:53:48.473Z,22.27
2023-04-13T12:54:48.431Z,22.24
2023-04-13T12:55:48.445Z,22.20
2023-04-13T12:56:48.438Z,22.17
2023-04-13T12:57:48.413Z,22.16
2023-04-13T12:58:48.425Z,22.13